Gdansk Lech Walesa Airport Gdansk PL
ICAO: EPGD
IATA: GDN
Category: Large
Scheduled Services: Yes

Elevation: 489 ft
TransAlt. 6500 ft.

Airport Communications:
GDANSK APP:127.275
ATIS:129.625
GDANSK TWR:118.1

EPGD Zoom In..

If you have problems with the map follow the link
https://www.worldairports.se/pages/airport.php?
ICAO=EPGD

Runways:

(A) RW 11 length 9186 ft width 148 ft
---- / hdg 108

(B) RW 29 length 9186 ft width 148 ft
ILS 110.30 / hdg 288

Location; EPGD
Day. 22 / Time. 06.30 Zulu
* QNH: 1017
* Temperature: 03° c. 37.4°f.
* Wind from: 140° Speed 13 kn.
Dewpoint: 02° c.
Visibility: 9000 m.
Clouds: Few 300 ft.
Clouds: Overcast 600 ft.
Conditions: Light Rain.

EPGD 220630Z 14013KT 9000 -RA FEW003 OVC006 03/02 Q1017


Wind From 140°
Speed 13 kn.

 
 
jpsmedia worldairports.se 2019   terms of use